createdAt,value
2022-09-23T00:00:25.790Z,6.66
2022-09-23T00:01:25.846Z,6.77
2022-09-23T00:02:25.811Z,6.72
2022-09-23T00:03:25.747Z,6.71
2022-09-23T00:04:25.750Z,6.81
2022-09-23T00:05:25.742Z,6.80
2022-09-23T00:06:25.737Z,6.79
2022-09-23T00:07:25.739Z,6.73
2022-09-23T00:08:25.726Z,6.73
2022-09-23T00:09:25.706Z,6.77
2022-09-23T00:10:25.710Z,6.79
2022-09-23T00:11:25.699Z,6.76
2022-09-23T00:12:25.706Z,6.77
2022-09-23T00:13:25.689Z,6.81
2022-09-23T00:14:25.681Z,6.72
2022-09-23T00:15:26.669Z,6.77
2022-09-23T00:16:25.711Z,6.71
2022-09-23T00:17:25.664Z,6.72
2022-09-23T00:18:25.656Z,6.79
2022-09-23T00:19:25.654Z,6.79
2022-09-23T00:20:25.641Z,6.86
2022-09-23T00:21:25.633Z,6.87
2022-09-23T00:22:25.638Z,6.79
2022-09-23T00:23:25.629Z,6.83
2022-09-23T00:24:25.663Z,6.80
2022-09-23T00:25:25.616Z,6.81
2022-09-23T00:26:25.611Z,6.90
2022-09-23T00:27:25.594Z,6.90
2022-09-23T00:28:25.582Z,6.83
2022-09-23T00:29:25.604Z,6.90
2022-09-23T00:30:25.615Z,6.79
2022-09-23T00:31:25.575Z,6.80
2022-09-23T00:32:25.574Z,6.71
2022-09-23T00:33:25.563Z,6.71
2022-09-23T00:34:25.567Z,6.80
2022-09-23T00:35:25.554Z,6.68
2022-09-23T00:36:25.538Z,6.68
2022-09-23T00:37:25.534Z,6.76
2022-09-23T00:38:25.539Z,6.76
2022-09-23T00:39:25.567Z,6.68
2022-09-23T00:40:25.582Z,6.66
2022-09-23T00:41:25.522Z,6.65
2022-09-23T00:42:25.514Z,6.62
2022-09-23T00:43:25.503Z,6.63
2022-09-23T00:44:25.513Z,6.63
2022-09-23T00:45:25.490Z,6.61
2022-09-23T00:46:25.566Z,6.65
2022-09-23T00:47:25.471Z,6.62
2022-09-23T00:48:25.474Z,6.58
2022-09-23T00:49:25.459Z,6.59
2022-09-23T00:50:25.462Z,6.63
2022-09-23T00:51:25.483Z,6.59
2022-09-23T00:52:25.459Z,6.63
2022-09-23T00:53:25.434Z,6.56
2022-09-23T00:54:25.438Z,6.58
2022-09-23T00:55:25.440Z,6.50
2022-09-23T00:56:25.978Z,6.41
2022-09-23T00:57:25.430Z,6.43
2022-09-23T00:58:25.408Z,6.35
2022-09-23T00:59:25.398Z,6.30
2022-09-23T01:00:25.398Z,6.21
2022-09-23T01:01:25.422Z,6.33
2022-09-23T01:02:25.499Z,6.33
2022-09-23T01:03:25.381Z,6.30
2022-09-23T01:04:25.368Z,6.29
2022-09-23T01:05:25.358Z,6.18
2022-09-23T01:06:25.357Z,6.13
2022-09-23T01:07:25.360Z,6.21
2022-09-23T01:08:25.346Z,6.18
2022-09-23T01:09:25.356Z,6.07
2022-09-23T01:10:25.342Z,6.13
2022-09-23T01:11:25.324Z,6.09
2022-09-23T01:12:25.314Z,6.09
2022-09-23T01:13:25.318Z,6.10
2022-09-23T01:14:25.314Z,6.04
2022-09-23T01:15:25.308Z,6.04
2022-09-23T01:16:25.360Z,5.98
2022-09-23T01:17:25.290Z,6.00
2022-09-23T01:18:25.289Z,5.96
2022-09-23T01:19:25.302Z,6.06
2022-09-23T01:20:25.279Z,6.00
2022-09-23T01:21:25.274Z,6.00
2022-09-23T01:22:25.250Z,5.95
2022-09-23T01:23:25.246Z,5.91
2022-09-23T01:24:25.261Z,5.86
2022-09-23T01:25:25.239Z,5.89
2022-09-23T01:26:25.227Z,5.91
2022-09-23T01:27:25.233Z,5.93
2022-09-23T01:28:25.222Z,5.89
2022-09-23T01:29:25.211Z,5.85
2022-09-23T01:30:25.448Z,5.82
2022-09-23T01:31:25.205Z,5.91
2022-09-23T01:32:25.208Z,5.86
2022-09-23T01:33:25.190Z,5.85
2022-09-23T01:34:25.186Z,5.88
2022-09-23T01:35:25.185Z,5.86
2022-09-23T01:36:25.175Z,5.89
2022-09-23T01:37:25.162Z,5.85
2022-09-23T01:38:25.155Z,5.89
2022-09-23T01:39:25.145Z,5.92
2022-09-23T01:40:25.240Z,6.00
2022-09-23T01:41:25.142Z,5.95
2022-09-23T01:42:25.127Z,6.04
2022-09-23T01:43:25.115Z,5.96
2022-09-23T01:44:25.129Z,6.00
2022-09-23T01:45:25.130Z,6.00
2022-09-23T01:46:25.110Z,6.04
2022-09-23T01:47:25.098Z,6.06
2022-09-23T01:48:25.133Z,6.06
2022-09-23T01:49:25.082Z,6.09
2022-09-23T01:50:25.090Z,6.06
2022-09-23T01:51:25.086Z,6.09
2022-09-23T01:52:25.062Z,6.14
2022-09-23T01:53:25.070Z,6.09
2022-09-23T01:54:25.054Z,6.10
2022-09-23T01:55:25.070Z,6.14
2022-09-23T01:56:25.173Z,6.10
2022-09-23T01:57:25.036Z,6.16
2022-09-23T01:58:25.026Z,6.07
2022-09-23T01:59:25.026Z,6.10
2022-09-23T02:00:25.018Z,6.13
2022-09-23T02:01:25.113Z,6.13
2022-09-23T02:02:25.054Z,6.13
2022-09-23T02:03:24.999Z,6.22
2022-09-23T02:04:24.986Z,6.11
2022-09-23T02:05:24.982Z,6.19
2022-09-23T02:06:24.989Z,6.04
2022-09-23T02:07:24.974Z,6.16
2022-09-23T02:08:24.968Z,6.13
2022-09-23T02:09:24.988Z,6.09
2022-09-23T02:10:24.954Z,6.18
2022-09-23T02:11:24.991Z,6.18
2022-09-23T02:12:24.945Z,6.14
2022-09-23T02:13:24.941Z,6.25
2022-09-23T02:14:24.921Z,6.13
2022-09-23T02:15:24.924Z,6.06
2022-09-23T02:16:24.976Z,6.10
2022-09-23T02:17:24.906Z,6.04
2022-09-23T02:18:24.901Z,6.04
2022-09-23T02:19:24.898Z,6.04
2022-09-23T02:20:24.886Z,5.98
2022-09-23T02:21:24.906Z,5.91
2022-09-23T02:22:24.881Z,5.88
2022-09-23T02:23:24.872Z,5.86
2022-09-23T02:24:24.882Z,5.85
2022-09-23T02:25:24.854Z,5.88
2022-09-23T02:26:24.842Z,5.82
2022-09-23T02:27:24.854Z,5.83
2022-09-23T02:28:24.842Z,5.74
2022-09-23T02:29:24.829Z,5.75
2022-09-23T02:30:24.827Z,5.75
2022-09-23T02:31:24.869Z,5.77
2022-09-23T02:32:24.823Z,5.74
2022-09-23T02:33:24.805Z,5.70
2022-09-23T02:34:24.798Z,5.78
2022-09-23T02:35:24.793Z,5.71
2022-09-23T02:36:24.798Z,5.73
2022-09-23T02:37:24.778Z,5.71
2022-09-23T02:38:24.780Z,5.70
2022-09-23T02:39:24.769Z,5.70
2022-09-23T02:40:24.788Z,5.64
2022-09-23T02:41:24.779Z,5.74
2022-09-23T02:42:24.745Z,5.66
2022-09-23T02:43:24.741Z,5.60
2022-09-23T02:44:24.737Z,5.63
2022-09-23T02:45:24.721Z,5.64
2022-09-23T02:46:24.856Z,5.59
2022-09-23T02:47:24.726Z,5.56
2022-09-23T02:48:24.710Z,5.55
2022-09-23T02:49:24.706Z,5.49
2022-09-23T02:50:24.684Z,5.45
2022-09-23T02:51:24.702Z,5.38
2022-09-23T02:52:24.701Z,5.43
2022-09-23T02:53:24.682Z,5.52
2022-09-23T02:54:24.683Z,5.48
2022-09-23T02:55:24.673Z,5.48
2022-09-23T02:56:24.666Z,5.41
2022-09-23T02:57:24.659Z,5.41
2022-09-23T02:58:24.650Z,5.43
2022-09-23T02:59:24.637Z,5.35
2022-09-23T03:00:24.629Z,5.40
2022-09-23T03:01:24.690Z,5.35
2022-09-23T03:02:24.676Z,5.41
2022-09-23T03:03:24.642Z,5.34
2022-09-23T03:04:25.605Z,5.40
2022-09-23T03:05:24.605Z,5.38
2022-09-23T03:06:24.593Z,5.30
2022-09-23T03:07:24.599Z,5.20
2022-09-23T03:08:24.589Z,5.19
2022-09-23T03:09:24.574Z,5.28
2022-09-23T03:10:24.571Z,5.16
2022-09-23T03:11:24.567Z,5.19
2022-09-23T03:12:24.554Z,5.13
2022-09-23T03:13:28.712Z,5.09
2022-09-23T03:14:25.557Z,5.16
2022-09-23T03:15:24.522Z,5.13
2022-09-23T03:16:24.603Z,5.13
2022-09-23T03:17:24.525Z,5.02
2022-09-23T03:18:24.513Z,4.99
2022-09-23T03:19:24.525Z,5.07
2022-09-23T03:20:24.514Z,5.04
2022-09-23T03:21:24.503Z,4.99
2022-09-23T03:22:24.495Z,5.02
2022-09-23T03:23:24.487Z,4.98
2022-09-23T03:24:24.497Z,4.95
2022-09-23T03:25:24.473Z,4.95
2022-09-23T03:26:24.469Z,4.88
2022-09-23T03:27:24.457Z,4.92
2022-09-23T03:28:24.450Z,4.95
2022-09-23T03:29:24.462Z,4.92
2022-09-23T03:30:24.440Z,4.94
2022-09-23T03:31:24.441Z,4.94
2022-09-23T03:32:24.434Z,4.92
2022-09-23T03:33:28.414Z,4.92
2022-09-23T03:34:25.419Z,5.05
2022-09-23T03:35:24.422Z,5.04
2022-09-23T03:36:24.403Z,4.94
2022-09-23T03:37:24.391Z,4.94
2022-09-23T03:38:24.377Z,4.94
2022-09-23T03:39:24.382Z,4.88
2022-09-23T03:40:24.441Z,4.88
2022-09-23T03:41:24.388Z,4.94
2022-09-23T03:42:24.370Z,4.96
2022-09-23T03:43:24.340Z,4.94
2022-09-23T03:44:24.342Z,4.91
2022-09-23T03:45:24.377Z,4.89
2022-09-23T03:46:24.334Z,4.89
2022-09-23T03:47:24.322Z,4.94
2022-09-23T03:48:24.325Z,4.88
2022-09-23T03:49:24.315Z,4.95
2022-09-23T03:50:24.305Z,4.95
2022-09-23T03:51:24.302Z,4.89
2022-09-23T03:52:24.309Z,4.88
2022-09-23T03:53:24.281Z,4.88
2022-09-23T03:54:24.285Z,4.89
2022-09-23T03:55:24.273Z,4.86
2022-09-23T03:56:24.266Z,4.83
2022-09-23T03:57:24.286Z,4.83
2022-09-23T03:58:24.257Z,4.84
2022-09-23T03:59:24.245Z,4.75
2022-09-23T04:00:24.245Z,4.83
2022-09-23T04:01:24.279Z,4.83
2022-09-23T04:02:24.306Z,4.80
2022-09-23T04:03:24.229Z,4.86
2022-09-23T04:04:24.213Z,4.84
2022-09-23T04:05:24.213Z,4.77
2022-09-23T04:06:24.209Z,4.67
2022-09-23T04:07:24.198Z,4.83
2022-09-23T04:08:24.180Z,4.76
2022-09-23T04:09:24.185Z,4.79
2022-09-23T04:10:24.189Z,4.77
2022-09-23T04:11:24.169Z,4.72
2022-09-23T04:12:24.161Z,4.77
2022-09-23T04:13:24.157Z,4.72
2022-09-23T04:14:24.147Z,4.73
2022-09-23T04:15:24.153Z,4.72
2022-09-23T04:16:24.203Z,4.76
2022-09-23T04:17:24.124Z,4.79
2022-09-23T04:18:24.121Z,4.73
2022-09-23T04:19:24.117Z,4.75
2022-09-23T04:20:24.130Z,4.75
2022-09-23T04:21:24.105Z,4.80
2022-09-23T04:22:24.087Z,4.73
2022-09-23T04:23:24.089Z,4.84
2022-09-23T04:24:24.093Z,4.76
2022-09-23T04:25:24.101Z,4.76
2022-09-23T04:26:24.071Z,4.80
2022-09-23T04:27:24.077Z,4.79
2022-09-23T04:28:24.065Z,4.75
2022-09-23T04:29:24.052Z,4.77
2022-09-23T04:30:24.041Z,4.86
2022-09-23T04:31:24.164Z,4.79
2022-09-23T04:32:24.033Z,4.75
2022-09-23T04:33:24.021Z,4.79
2022-09-23T04:34:24.018Z,4.79
2022-09-23T04:35:24.017Z,4.77
2022-09-23T04:36:24.012Z,4.79
2022-09-23T04:37:24.004Z,4.76
2022-09-23T04:38:23.998Z,4.76
2022-09-23T04:39:23.988Z,4.77
2022-09-23T04:40:24.004Z,4.70
2022-09-23T04:41:23.994Z,4.70
2022-09-23T04:42:23.979Z,4.70
2022-09-23T04:43:23.968Z,4.76
2022-09-23T04:44:23.965Z,4.69
2022-09-23T04:45:23.957Z,4.75
2022-09-23T04:46:23.986Z,4.73
2022-09-23T04:47:23.941Z,4.59
2022-09-23T04:48:23.926Z,4.70
2022-09-23T04:49:23.933Z,4.67
2022-09-23T04:50:23.920Z,4.62
2022-09-23T04:51:23.921Z,4.70
2022-09-23T04:52:23.919Z,4.65
2022-09-23T04:53:23.900Z,4.55
2022-09-23T04:54:23.894Z,4.62
2022-09-23T04:55:23.877Z,4.65
2022-09-23T04:56:23.883Z,4.73
2022-09-23T04:57:23.897Z,4.69
2022-09-23T04:58:24.870Z,4.67
2022-09-23T04:59:23.860Z,4.62
2022-09-23T05:00:23.855Z,4.62
2022-09-23T05:01:23.902Z,4.62
2022-09-23T05:02:23.886Z,4.75
2022-09-23T05:03:23.836Z,4.72
2022-09-23T05:04:23.829Z,4.73
2022-09-23T05:05:23.817Z,4.69
2022-09-23T05:06:23.818Z,4.73
2022-09-23T05:07:23.825Z,4.79
2022-09-23T05:08:23.797Z,4.77
2022-09-23T05:09:23.795Z,4.77
2022-09-23T05:10:23.789Z,4.84
2022-09-23T05:11:23.784Z,4.80
2022-09-23T05:12:23.788Z,4.83
2022-09-23T05:13:23.765Z,4.83
2022-09-23T05:14:23.765Z,4.86
2022-09-23T05:15:23.757Z,4.83
2022-09-23T05:16:23.815Z,4.80
2022-09-23T05:17:23.744Z,4.86
2022-09-23T05:18:23.785Z,4.91
2022-09-23T05:19:23.728Z,4.84
2022-09-23T05:20:23.732Z,4.84
2022-09-23T05:21:23.717Z,4.86
2022-09-23T05:22:23.710Z,4.86
2022-09-23T05:23:23.720Z,4.79
2022-09-23T05:24:23.700Z,4.83
2022-09-23T05:25:23.690Z,4.86
2022-09-23T05:26:23.686Z,4.91
2022-09-23T05:27:23.676Z,4.88
2022-09-23T05:28:23.673Z,4.91
2022-09-23T05:29:23.681Z,5.02
2022-09-23T05:30:23.678Z,4.96
2022-09-23T05:31:23.703Z,4.99
2022-09-23T05:32:23.648Z,4.99
2022-09-23T05:33:23.629Z,5.13
2022-09-23T05:34:23.645Z,5.01
2022-09-23T05:35:23.619Z,5.09
2022-09-23T05:36:23.616Z,5.01
2022-09-23T05:37:23.608Z,5.09
2022-09-23T05:38:23.609Z,5.16
2022-09-23T05:39:23.603Z,5.19
2022-09-23T05:40:23.638Z,5.27
2022-09-23T05:41:23.584Z,5.34
2022-09-23T05:42:23.577Z,5.32
2022-09-23T05:43:23.570Z,5.35
2022-09-23T05:44:23.580Z,5.30
2022-09-23T05:45:24.311Z,5.34
2022-09-23T05:46:23.655Z,5.46
2022-09-23T05:47:23.549Z,5.41
2022-09-23T05:48:23.538Z,5.48
2022-09-23T05:49:37.646Z,5.56
2022-09-23T05:50:24.532Z,5.50
2022-09-23T05:51:27.517Z,5.59
2022-09-23T05:52:24.528Z,5.56
2022-09-23T05:53:23.512Z,5.63
2022-09-23T05:54:23.524Z,5.70
2022-09-23T05:55:23.501Z,5.75
2022-09-23T05:56:23.496Z,5.73
2022-09-23T05:57:23.487Z,5.82
2022-09-23T05:58:23.472Z,5.91
2022-09-23T05:59:23.484Z,5.88
2022-09-23T06:00:23.473Z,5.96
2022-09-23T06:01:23.464Z,6.03
2022-09-23T06:02:23.570Z,6.01
2022-09-23T06:03:23.513Z,6.11
2022-09-23T06:04:23.458Z,6.25
2022-09-23T06:05:23.442Z,6.30
2022-09-23T06:06:23.432Z,6.33
2022-09-23T06:07:23.460Z,6.35
2022-09-23T06:08:23.430Z,6.46
2022-09-23T06:09:23.407Z,6.65
2022-09-23T06:10:23.412Z,6.69
2022-09-23T06:11:23.406Z,6.81
2022-09-23T06:12:23.399Z,6.80
2022-09-23T06:13:23.396Z,6.89
2022-09-23T06:14:23.376Z,7.02
2022-09-23T06:15:23.391Z,7.15
2022-09-23T06:16:23.430Z,7.19
2022-09-23T06:17:23.505Z,7.34
2022-09-23T06:18:23.356Z,7.31
2022-09-23T06:19:23.348Z,7.53
2022-09-23T06:20:23.348Z,7.56
2022-09-23T06:21:23.320Z,7.55
2022-09-23T06:22:23.341Z,7.66
2022-09-23T06:23:26.569Z,7.59
2022-09-23T06:24:30.197Z,7.52
2022-09-23T06:25:24.317Z,7.52
2022-09-23T06:26:23.294Z,7.52
2022-09-23T06:27:23.289Z,7.41
2022-09-23T06:28:23.284Z,7.40
2022-09-23T06:29:23.292Z,7.45
2022-09-23T06:30:23.284Z,7.47
2022-09-23T06:31:23.312Z,7.50
2022-09-23T06:32:23.256Z,7.66
2022-09-23T06:33:34.329Z,7.71
2022-09-23T06:34:25.252Z,7.89
2022-09-23T06:35:27.474Z,7.93
2022-09-23T06:36:37.606Z,8.04
2022-09-23T06:37:25.219Z,8.22
2022-09-23T06:38:23.220Z,8.30
2022-09-23T06:39:23.209Z,8.54
2022-09-23T06:40:23.224Z,8.58
2022-09-23T06:41:23.204Z,8.68
2022-09-23T06:42:23.179Z,8.66
2022-09-23T06:43:23.176Z,8.88
2022-09-23T06:44:23.168Z,9.02
2022-09-23T06:45:23.152Z,9.39
2022-09-23T06:46:23.237Z,9.67
2022-09-23T06:47:23.158Z,9.89
2022-09-23T06:48:23.146Z,9.89
2022-09-23T06:49:23.141Z,10.12
2022-09-23T06:50:23.136Z,10.40
2022-09-23T06:51:23.121Z,10.66
2022-09-23T06:52:23.156Z,10.95
2022-09-23T06:53:23.118Z,11.16
2022-09-23T06:54:23.108Z,11.38
2022-09-23T06:55:23.100Z,11.24
2022-09-23T06:56:23.095Z,11.28
2022-09-23T06:57:23.119Z,11.28
2022-09-23T06:58:23.067Z,11.29
2022-09-23T06:59:23.062Z,11.09
2022-09-23T07:00:23.064Z,10.96
2022-09-23T07:01:23.095Z,10.83
2022-09-23T07:02:23.186Z,10.63
2022-09-23T07:03:23.048Z,10.46
2022-09-23T07:04:26.129Z,10.44
2022-09-23T07:05:24.025Z,10.51
2022-09-23T07:06:23.019Z,10.55
2022-09-23T07:07:23.004Z,10.76
2022-09-23T07:08:23.027Z,10.39
2022-09-23T07:09:23.005Z,10.33
2022-09-23T07:10:22.987Z,10.40
2022-09-23T07:11:22.980Z,10.46
2022-09-23T07:12:23.007Z,10.46
2022-09-23T07:13:22.959Z,10.73
2022-09-23T07:14:22.964Z,10.98
2022-09-23T07:15:22.960Z,11.25
2022-09-23T07:16:22.994Z,11.44
2022-09-23T07:17:22.979Z,11.83
2022-09-23T07:18:22.944Z,12.20
2022-09-23T07:19:22.917Z,12.49
2022-09-23T07:20:23.966Z,12.92
2022-09-23T07:21:22.928Z,13.36
2022-09-23T07:22:22.917Z,13.69
2022-09-23T07:23:22.916Z,14.29
2022-09-23T07:24:22.900Z,14.80
2022-09-23T07:25:22.896Z,15.45
2022-09-23T07:26:22.926Z,15.96
2022-09-23T07:27:22.884Z,16.55
2022-09-23T07:28:22.957Z,16.98
2022-09-23T07:29:22.880Z,17.41
2022-09-23T07:30:25.349Z,17.81
2022-09-23T07:31:35.999Z,18.13
2022-09-23T07:32:24.953Z,18.40
2022-09-23T07:33:31.804Z,18.49
2022-09-23T07:34:24.845Z,18.67
2022-09-23T07:35:22.833Z,18.87
2022-09-23T07:36:22.825Z,18.95
2022-09-23T07:37:22.829Z,19.13
2022-09-23T07:38:22.957Z,19.46
2022-09-23T07:39:22.800Z,19.69
2022-09-23T07:40:22.833Z,20.06
2022-09-23T07:41:22.783Z,20.61
2022-09-23T07:42:22.792Z,20.86
2022-09-23T07:43:22.795Z,21.26
2022-09-23T07:44:22.787Z,21.39
2022-09-23T07:45:22.763Z,21.60
2022-09-23T07:46:22.799Z,21.83
2022-09-23T07:47:22.748Z,22.23
2022-09-23T07:48:22.751Z,22.46
2022-09-23T07:49:22.756Z,22.77
2022-09-23T07:50:22.802Z,23.14
2022-09-23T07:51:22.730Z,23.49
2022-09-23T07:52:22.724Z,23.80
2022-09-23T07:53:22.717Z,23.72
2022-09-23T07:54:22.720Z,23.64
2022-09-23T07:55:22.705Z,23.67
2022-09-23T07:56:22.696Z,23.70
2022-09-23T07:57:22.683Z,23.58
2022-09-23T07:58:22.687Z,23.39
2022-09-23T07:59:22.680Z,22.99
2022-09-23T08:00:22.809Z,23.19
2022-09-23T08:01:22.785Z,22.99
2022-09-23T08:02:22.759Z,22.75
2022-09-23T08:03:22.664Z,22.84
2022-09-23T08:04:22.652Z,23.17
2022-09-23T08:05:22.642Z,23.62
2022-09-23T08:06:22.643Z,23.97
2022-09-23T08:07:23.628Z,24.20
2022-09-23T08:08:22.616Z,24.45
2022-09-23T08:09:22.633Z,25.05
2022-09-23T08:10:22.721Z,25.39
2022-09-23T08:11:22.599Z,25.72
2022-09-23T08:12:22.584Z,26.22
2022-09-23T08:13:22.591Z,26.76
2022-09-23T08:14:22.587Z,26.89
2022-09-23T08:15:22.579Z,27.17
2022-09-23T08:16:22.601Z,27.24
2022-09-23T08:17:22.563Z,27.41
2022-09-23T08:18:22.556Z,27.31
2022-09-23T08:19:22.559Z,27.23
2022-09-23T08:20:22.589Z,27.05
2022-09-23T08:21:22.537Z,26.92
2022-09-23T08:22:22.535Z,26.35
2022-09-23T08:23:22.526Z,25.77
2022-09-23T08:24:22.538Z,25.47
2022-09-23T08:25:22.812Z,25.53
2022-09-23T08:26:23.504Z,25.83
2022-09-23T08:27:22.508Z,26.12
2022-09-23T08:28:22.493Z,26.22
2022-09-23T08:29:22.491Z,26.49
2022-09-23T08:30:22.515Z,26.84
2022-09-23T08:31:22.542Z,27.17
2022-09-23T08:32:22.478Z,27.28
2022-09-23T08:33:23.622Z,27.67
2022-09-23T08:34:23.457Z,27.74
2022-09-23T08:35:22.456Z,27.96
2022-09-23T08:36:22.479Z,28.29
2022-09-23T08:37:22.435Z,28.11
2022-09-23T08:38:22.435Z,28.01
2022-09-23T08:39:22.427Z,27.69
2022-09-23T08:40:22.447Z,27.20
2022-09-23T08:41:22.418Z,26.96
2022-09-23T08:42:22.407Z,27.50
2022-09-23T08:43:22.411Z,27.88
2022-09-23T08:44:22.390Z,28.13
2022-09-23T08:45:22.387Z,28.01
2022-09-23T08:46:22.409Z,27.85
2022-09-23T08:47:22.374Z,27.77
2022-09-23T08:48:22.380Z,28.09
2022-09-23T08:49:22.367Z,27.98
2022-09-23T08:50:22.354Z,27.42
2022-09-23T08:51:22.348Z,27.43
2022-09-23T08:52:22.320Z,27.59
2022-09-23T08:53:22.340Z,27.35
2022-09-23T08:54:22.344Z,27.46
2022-09-23T08:55:22.324Z,27.36
2022-09-23T08:56:22.316Z,27.20
2022-09-23T08:57:22.307Z,27.31
2022-09-23T08:58:25.267Z,27.38
2022-09-23T08:59:23.308Z,27.46
2022-09-23T09:00:22.280Z,27.76
2022-09-23T09:01:22.319Z,28.07
2022-09-23T09:02:22.299Z,27.99
2022-09-23T09:03:22.284Z,28.13
2022-09-23T09:04:22.268Z,28.10
2022-09-23T09:05:22.258Z,27.98
2022-09-23T09:06:22.255Z,27.95
2022-09-23T09:07:36.189Z,28.17
2022-09-23T09:08:24.247Z,28.28
2022-09-23T09:09:22.252Z,28.22
2022-09-23T09:10:22.221Z,28.04
2022-09-23T09:11:22.224Z,28.38
2022-09-23T09:12:22.223Z,28.26
2022-09-23T09:13:22.208Z,28.13
2022-09-23T09:14:22.209Z,28.44
2022-09-23T09:15:24.625Z,28.56
2022-09-23T09:16:41.798Z,28.04
2022-09-23T09:17:24.184Z,27.73
2022-09-23T09:18:22.172Z,27.73
2022-09-23T09:19:22.179Z,28.04
2022-09-23T09:20:22.160Z,28.11
2022-09-23T09:21:22.189Z,28.35
2022-09-23T09:22:22.156Z,28.58
2022-09-23T09:23:22.144Z,28.56
2022-09-23T09:24:22.155Z,29.06
2022-09-23T09:25:22.160Z,29.37
2022-09-23T09:26:22.139Z,29.86
2022-09-23T09:27:22.124Z,29.84
2022-09-23T09:28:22.112Z,29.78
2022-09-23T09:29:35.083Z,30.02
2022-09-23T09:30:24.135Z,30.09
2022-09-23T09:31:22.905Z,29.84
2022-09-23T09:32:22.104Z,29.55
2022-09-23T09:33:22.083Z,29.41
2022-09-23T09:34:22.091Z,29.81
2022-09-23T09:35:22.079Z,30.09
2022-09-23T09:36:22.065Z,29.99
2022-09-23T09:37:22.092Z,29.89
2022-09-23T09:38:22.113Z,29.57
2022-09-23T09:39:26.067Z,28.47
2022-09-23T09:40:23.107Z,28.26
2022-09-23T09:41:22.043Z,28.31
2022-09-23T09:42:22.056Z,28.21
2022-09-23T09:43:22.044Z,28.14
2022-09-23T09:44:22.023Z,28.11
2022-09-23T09:45:22.020Z,28.38
2022-09-23T09:46:22.054Z,28.46
2022-09-23T09:47:22.012Z,29.06
2022-09-23T09:48:22.015Z,29.10
2022-09-23T09:49:22.020Z,28.44
2022-09-23T09:50:22.001Z,28.14
2022-09-23T09:51:21.992Z,27.24
2022-09-23T09:52:21.982Z,27.69
2022-09-23T09:53:21.933Z,27.74
2022-09-23T09:54:21.916Z,28.28
2022-09-23T09:55:21.926Z,27.96
2022-09-23T09:56:21.901Z,28.21
2022-09-23T09:57:21.896Z,28.40
2022-09-23T09:58:21.892Z,28.59
2022-09-23T09:59:22.686Z,28.46
2022-09-23T10:00:21.895Z,28.60
2022-09-23T10:01:21.926Z,28.87
2022-09-23T10:02:21.857Z,29.53
2022-09-23T10:03:21.858Z,29.01
2022-09-23T10:04:21.917Z,28.06
2022-09-23T10:05:21.862Z,27.13
2022-09-23T10:06:21.841Z,26.57
2022-09-23T10:07:21.841Z,26.79
2022-09-23T10:08:21.837Z,27.09
2022-09-23T10:09:21.833Z,27.23
2022-09-23T10:10:32.500Z,27.16
2022-09-23T10:11:23.823Z,27.43
2022-09-23T10:12:21.808Z,27.99
2022-09-23T10:13:21.814Z,28.75
2022-09-23T10:14:21.803Z,29.29
2022-09-23T10:15:21.791Z,29.40
2022-09-23T10:16:21.849Z,29.03
2022-09-23T10:17:21.778Z,29.10
2022-09-23T10:18:21.781Z,29.33
2022-09-23T10:19:21.782Z,29.37
2022-09-23T10:20:21.756Z,29.18
2022-09-23T10:21:26.909Z,29.08
2022-09-23T10:22:22.752Z,29.20
2022-09-23T10:23:21.767Z,29.68
2022-09-23T10:24:21.782Z,30.00
2022-09-23T10:25:21.737Z,30.26
2022-09-23T10:26:21.770Z,30.37
2022-09-23T10:27:21.728Z,30.21
2022-09-23T10:28:21.722Z,28.90
2022-09-23T10:29:21.725Z,27.21
2022-09-23T10:30:21.774Z,26.79
2022-09-23T10:31:21.776Z,26.96
2022-09-23T10:32:21.743Z,27.14
2022-09-23T10:33:21.701Z,27.31
2022-09-23T10:34:21.713Z,27.05
2022-09-23T10:35:21.696Z,27.05
2022-09-23T10:36:21.671Z,27.38
2022-09-23T10:37:21.670Z,27.77
2022-09-23T10:38:21.704Z,27.69
2022-09-23T10:39:21.673Z,28.01
2022-09-23T10:40:21.701Z,28.51
2022-09-23T10:41:21.650Z,27.88
2022-09-23T10:42:21.640Z,26.92
2022-09-23T10:43:21.666Z,26.37
2022-09-23T10:44:21.643Z,26.42
2022-09-23T10:45:21.634Z,26.50
2022-09-23T10:46:21.692Z,26.08
2022-09-23T10:47:21.636Z,25.61
2022-09-23T10:48:21.631Z,25.09
2022-09-23T10:49:21.632Z,24.88
2022-09-23T10:50:21.601Z,25.10
2022-09-23T10:51:25.505Z,25.44
2022-09-23T10:52:22.602Z,25.52
2022-09-23T10:53:21.598Z,25.87
2022-09-23T10:54:21.604Z,26.05
2022-09-23T10:55:21.592Z,25.68
2022-09-23T10:56:21.581Z,24.88
2022-09-23T10:57:21.572Z,24.32
2022-09-23T10:58:21.565Z,24.44
2022-09-23T10:59:21.582Z,24.85
2022-09-23T11:00:21.584Z,23.90
2022-09-23T11:01:21.572Z,23.61
2022-09-23T11:02:21.559Z,23.08
2022-09-23T11:03:21.550Z,23.27
2022-09-23T11:04:21.597Z,23.85
2022-09-23T11:05:21.553Z,24.26
2022-09-23T11:06:21.576Z,24.64
2022-09-23T11:07:21.532Z,24.91
2022-09-23T11:08:21.553Z,25.24
2022-09-23T11:09:21.517Z,25.00
2022-09-23T11:10:35.322Z,25.16
2022-09-23T11:11:23.502Z,24.82
2022-09-23T11:12:21.509Z,24.32
2022-09-23T11:13:21.491Z,24.01
2022-09-23T11:14:21.484Z,23.98
2022-09-23T11:15:21.483Z,24.29
2022-09-23T11:16:21.513Z,24.80
2022-09-23T11:17:22.464Z,24.79
2022-09-23T11:18:21.456Z,25.46
2022-09-23T11:19:21.458Z,25.90
2022-09-23T11:20:21.457Z,26.32
2022-09-23T11:21:21.477Z,26.01
2022-09-23T11:22:21.435Z,25.89
2022-09-23T11:23:21.447Z,25.59
2022-09-23T11:24:21.452Z,25.89
2022-09-23T11:25:21.435Z,26.29
2022-09-23T11:26:21.443Z,25.80
2022-09-23T11:27:21.415Z,25.80
2022-09-23T11:28:21.407Z,25.71
2022-09-23T11:29:21.409Z,25.64
2022-09-23T11:30:21.418Z,25.82
2022-09-23T11:31:21.475Z,25.15
2022-09-23T11:32:21.385Z,25.27
2022-09-23T11:33:21.390Z,25.71
2022-09-23T11:34:21.661Z,25.68
2022-09-23T11:35:21.366Z,25.97
2022-09-23T11:36:21.371Z,26.09
2022-09-23T11:37:21.373Z,26.09
2022-09-23T11:38:21.351Z,26.35
2022-09-23T11:39:21.358Z,26.57
2022-09-23T11:40:21.398Z,26.44
2022-09-23T11:41:21.335Z,26.32
2022-09-23T11:42:21.890Z,26.06
2022-09-23T11:43:21.340Z,25.80
2022-09-23T11:44:21.314Z,25.25
2022-09-23T11:45:21.312Z,25.07
2022-09-23T11:46:21.342Z,24.77
2022-09-23T11:47:21.300Z,24.29
2022-09-23T11:48:21.292Z,24.16
2022-09-23T11:49:21.280Z,23.87
2022-09-23T11:50:21.279Z,23.26
2022-09-23T11:51:21.273Z,21.99
2022-09-23T11:52:21.276Z,21.90
2022-09-23T11:53:21.260Z,21.57
2022-09-23T11:54:21.347Z,21.60
2022-09-23T11:55:23.176Z,21.78
2022-09-23T11:56:31.604Z,21.81
2022-09-23T11:57:23.260Z,21.75
2022-09-23T11:58:25.542Z,21.79
2022-09-23T11:59:33.894Z,21.83
2022-09-23T12:00:23.219Z,21.91
2022-09-23T12:01:32.129Z,22.10
2022-09-23T12:02:28.193Z,22.31
2022-09-23T12:03:25.348Z,22.13
2022-09-23T12:04:22.721Z,22.27
2022-09-23T12:05:21.350Z,22.53
2022-09-23T12:06:21.172Z,22.77
2022-09-23T12:07:21.179Z,22.60
2022-09-23T12:08:21.165Z,22.47
2022-09-23T12:09:35.795Z,22.75
2022-09-23T12:10:23.152Z,23.11
2022-09-23T12:11:21.149Z,23.79
2022-09-23T12:12:26.349Z,24.35
2022-09-23T12:13:23.130Z,24.56
2022-09-23T12:14:21.278Z,24.47
2022-09-23T12:15:21.127Z,24.57
2022-09-23T12:16:21.181Z,24.42
2022-09-23T12:17:21.109Z,23.77
2022-09-23T12:18:23.330Z,23.42
2022-09-23T12:19:22.114Z,22.82
2022-09-23T12:20:21.124Z,22.29
2022-09-23T12:21:45.858Z,22.13
2022-09-23T12:22:23.088Z,22.20
2022-09-23T12:23:21.077Z,22.47
2022-09-23T12:24:21.072Z,22.74
2022-09-23T12:25:21.079Z,22.97
2022-09-23T12:26:21.099Z,23.23
2022-09-23T12:27:21.058Z,23.24
2022-09-23T12:28:21.046Z,23.07
2022-09-23T12:29:21.103Z,22.39
2022-09-23T12:30:21.104Z,21.91
2022-09-23T12:31:21.048Z,21.90
2022-09-23T12:32:21.024Z,22.07
2022-09-23T12:33:21.069Z,21.78
2022-09-23T12:34:21.012Z,21.72
2022-09-23T12:35:21.011Z,21.41
2022-09-23T12:36:21.001Z,21.08
2022-09-23T12:37:21.004Z,21.16
2022-09-23T12:38:20.976Z,20.95
2022-09-23T12:39:21.047Z,20.90
2022-09-23T12:40:20.984Z,20.98
2022-09-23T12:41:20.967Z,20.84
2022-09-23T12:42:20.974Z,21.13
2022-09-23T12:43:20.954Z,21.32
2022-09-23T12:44:20.936Z,21.66
2022-09-23T12:45:20.940Z,21.95
2022-09-23T12:46:20.962Z,22.16
2022-09-23T12:47:20.940Z,22.39
2022-09-23T12:48:20.912Z,22.34
2022-09-23T12:49:20.919Z,22.23
2022-09-23T12:50:23.815Z,22.27
2022-09-23T12:51:20.896Z,22.39
2022-09-23T12:52:20.909Z,22.43
2022-09-23T12:53:20.889Z,22.50
2022-09-23T12:54:20.878Z,22.62
2022-09-23T12:55:20.873Z,22.41
2022-09-23T12:56:20.862Z,22.22
2022-09-23T12:57:20.873Z,22.12
2022-09-23T12:58:20.848Z,22.17
2022-09-23T12:59:20.851Z,22.29
2022-09-23T13:00:20.842Z,22.41
2022-09-23T13:01:20.976Z,22.39
2022-09-23T13:02:20.951Z,22.38
2022-09-23T13:03:20.833Z,22.44
2022-09-23T13:04:20.809Z,22.44
2022-09-23T13:05:20.829Z,22.59